sensor_id;sensor_type;location;lat;lon;timestamp;P1;durP1;ratioP1;P2;durP2;ratioP2
9970;SDS011;5026;51.494;11.974;2022-10-31T00:01:23;14.85;;;9.63;;
9970;SDS011;5026;51.494;11.974;2022-10-31T00:03:51;16.90;;;9.15;;
9970;SDS011;5026;51.494;11.974;2022-10-31T00:06:19;20.23;;;9.27;;
9970;SDS011;5026;51.494;11.974;2022-10-31T00:08:51;17.75;;;9.43;;
9970;SDS011;5026;51.494;11.974;2022-10-31T00:11:19;19.27;;;9.43;;
9970;SDS011;5026;51.494;11.974;2022-10-31T00:13:46;17.88;;;9.32;;
9970;SDS011;5026;51.494;11.974;2022-10-31T00:16:13;18.52;;;9.38;;
9970;SDS011;5026;51.494;11.974;2022-10-31T00:18:40;16.33;;;9.27;;
9970;SDS011;5026;51.494;11.974;2022-10-31T00:21:07;17.83;;;9.07;;
9970;SDS011;5026;51.494;11.974;2022-10-31T00:23:34;15.85;;;9.43;;
9970;SDS011;5026;51.494;11.974;2022-10-31T00:26:03;14.98;;;9.00;;
9970;SDS011;5026;51.494;11.974;2022-10-31T00:28:31;15.48;;;8.73;;
9970;SDS011;5026;51.494;11.974;2022-10-31T00:30:59;14.13;;;8.85;;
9970;SDS011;5026;51.494;11.974;2022-10-31T00:33:26;17.13;;;9.30;;
9970;SDS011;5026;51.494;11.974;2022-10-31T00:35:53;15.82;;;9.63;;
9970;SDS011;5026;51.494;11.974;2022-10-31T00:38:20;16.08;;;9.57;;
9970;SDS011;5026;51.494;11.974;2022-10-31T00:40:47;17.95;;;8.93;;
9970;SDS011;5026;51.494;11.974;2022-10-31T00:43:15;14.68;;;8.60;;
9970;SDS011;5026;51.494;11.974;2022-10-31T00:45:42;15.75;;;8.38;;
9970;SDS011;5026;51.494;11.974;2022-10-31T00:48:09;16.35;;;8.60;;
9970;SDS011;5026;51.494;11.974;2022-10-31T00:50:36;14.95;;;9.27;;
9970;SDS011;5026;51.494;11.974;2022-10-31T00:53:03;15.10;;;8.18;;
9970;SDS011;5026;51.494;11.974;2022-10-31T00:55:30;18.13;;;8.63;;
9970;SDS011;5026;51.494;11.974;2022-10-31T00:57:57;14.50;;;8.90;;
9970;SDS011;5026;51.494;11.974;2022-10-31T01:00:25;16.00;;;8.88;;
9970;SDS011;5026;51.494;11.974;2022-10-31T01:02:52;15.25;;;8.38;;
9970;SDS011;5026;51.494;11.974;2022-10-31T01:05:19;17.67;;;7.95;;
9970;SDS011;5026;51.494;11.974;2022-10-31T01:07:46;14.27;;;8.82;;
9970;SDS011;5026;51.494;11.974;2022-10-31T01:10:13;16.92;;;9.20;;
9970;SDS011;5026;51.494;11.974;2022-10-31T01:12:40;16.33;;;8.48;;
9970;SDS011;5026;51.494;11.974;2022-10-31T01:15:09;13.43;;;8.25;;
9970;SDS011;5026;51.494;11.974;2022-10-31T01:17:39;17.92;;;8.77;;
9970;SDS011;5026;51.494;11.974;2022-10-31T01:20:07;12.25;;;8.20;;
9970;SDS011;5026;51.494;11.974;2022-10-31T01:22:35;19.73;;;8.15;;
9970;SDS011;5026;51.494;11.974;2022-10-31T01:25:02;15.82;;;7.85;;
9970;SDS011;5026;51.494;11.974;2022-10-31T01:27:30;17.08;;;8.65;;
9970;SDS011;5026;51.494;11.974;2022-10-31T01:29:58;14.90;;;7.85;;
9970;SDS011;5026;51.494;11.974;2022-10-31T01:32:25;10.93;;;7.45;;
9970;SDS011;5026;51.494;11.974;2022-10-31T01:34:55;10.75;;;7.93;;
9970;SDS011;5026;51.494;11.974;2022-10-31T01:37:22;11.65;;;7.75;;
9970;SDS011;5026;51.494;11.974;2022-10-31T01:39:48;14.38;;;7.78;;
9970;SDS011;5026;51.494;11.974;2022-10-31T01:42:17;16.63;;;8.15;;
9970;SDS011;5026;51.494;11.974;2022-10-31T01:44:56;15.30;;;7.53;;
9970;SDS011;5026;51.494;11.974;2022-10-31T01:47:30;12.60;;;7.85;;
9970;SDS011;5026;51.494;11.974;2022-10-31T01:50:03;14.95;;;7.97;;
9970;SDS011;5026;51.494;11.974;2022-10-31T01:52:36;11.63;;;7.87;;
9970;SDS011;5026;51.494;11.974;2022-10-31T01:55:07;14.47;;;8.23;;
9970;SDS011;5026;51.494;11.974;2022-10-31T01:57:36;14.90;;;8.27;;
9970;SDS011;5026;51.494;11.974;2022-10-31T02:00:06;16.43;;;7.87;;
9970;SDS011;5026;51.494;11.974;2022-10-31T02:02:41;11.60;;;7.63;;
9970;SDS011;5026;51.494;11.974;2022-10-31T02:05:11;16.30;;;8.03;;
9970;SDS011;5026;51.494;11.974;2022-10-31T02:07:42;14.80;;;7.93;;
9970;SDS011;5026;51.494;11.974;2022-10-31T02:10:13;13.07;;;8.07;;
9970;SDS011;5026;51.494;11.974;2022-10-31T02:12:40;17.00;;;8.27;;
9970;SDS011;5026;51.494;11.974;2022-10-31T02:15:08;21.03;;;8.87;;
9970;SDS011;5026;51.494;11.974;2022-10-31T02:17:35;14.32;;;7.90;;
9970;SDS011;5026;51.494;11.974;2022-10-31T02:20:05;14.03;;;8.47;;
9970;SDS011;5026;51.494;11.974;2022-10-31T02:22:40;13.03;;;8.10;;
9970;SDS011;5026;51.494;11.974;2022-10-31T02:25:19;14.50;;;8.27;;
9970;SDS011;5026;51.494;11.974;2022-10-31T02:28:09;15.15;;;8.38;;
9970;SDS011;5026;51.494;11.974;2022-10-31T02:31:03;19.75;;;8.35;;
9970;SDS011;5026;51.494;11.974;2022-10-31T02:33:43;14.80;;;8.63;;
9970;SDS011;5026;51.494;11.974;2022-10-31T02:36:16;13.33;;;8.00;;
9970;SDS011;5026;51.494;11.974;2022-10-31T02:38:52;13.73;;;8.27;;
9970;SDS011;5026;51.494;11.974;2022-10-31T02:41:31;15.27;;;8.18;;
9970;SDS011;5026;51.494;11.974;2022-10-31T02:44:05;13.37;;;8.40;;
9970;SDS011;5026;51.494;11.974;2022-10-31T02:46:37;13.17;;;8.27;;
9970;SDS011;5026;51.494;11.974;2022-10-31T02:49:10;16.27;;;8.53;;
9970;SDS011;5026;51.494;11.974;2022-10-31T02:51:44;17.87;;;8.87;;
9970;SDS011;5026;51.494;11.974;2022-10-31T02:54:18;17.90;;;8.00;;
9970;SDS011;5026;51.494;11.974;2022-10-31T02:56:47;15.87;;;8.20;;
9970;SDS011;5026;51.494;11.974;2022-10-31T02:59:16;14.53;;;8.83;;
9970;SDS011;5026;51.494;11.974;2022-10-31T03:01:51;16.53;;;8.50;;
9970;SDS011;5026;51.494;11.974;2022-10-31T03:04:30;12.20;;;7.55;;
9970;SDS011;5026;51.494;11.974;2022-10-31T03:07:17;21.50;;;9.27;;
9970;SDS011;5026;51.494;11.974;2022-10-31T03:09:52;17.17;;;8.60;;
9970;SDS011;5026;51.494;11.974;2022-10-31T03:12:29;13.97;;;8.33;;
9970;SDS011;5026;51.494;11.974;2022-10-31T03:15:08;13.33;;;8.47;;
9970;SDS011;5026;51.494;11.974;2022-10-31T03:17:45;16.30;;;8.70;;
9970;SDS011;5026;51.494;11.974;2022-10-31T03:20:19;12.20;;;8.60;;
9970;SDS011;5026;51.494;11.974;2022-10-31T03:22:49;14.37;;;8.77;;
9970;SDS011;5026;51.494;11.974;2022-10-31T03:25:18;18.50;;;9.87;;
9970;SDS011;5026;51.494;11.974;2022-10-31T03:27:45;15.73;;;8.87;;
9970;SDS011;5026;51.494;11.974;2022-10-31T03:30:13;16.17;;;8.80;;
9970;SDS011;5026;51.494;11.974;2022-10-31T03:32:44;16.93;;;8.70;;
9970;SDS011;5026;51.494;11.974;2022-10-31T03:35:15;16.60;;;8.67;;
9970;SDS011;5026;51.494;11.974;2022-10-31T03:37:45;16.83;;;9.10;;
9970;SDS011;5026;51.494;11.974;2022-10-31T03:40:14;15.57;;;9.13;;
9970;SDS011;5026;51.494;11.974;2022-10-31T03:42:44;17.67;;;9.33;;
9970;SDS011;5026;51.494;11.974;2022-10-31T03:45:16;14.67;;;8.80;;
9970;SDS011;5026;51.494;11.974;2022-10-31T03:47:50;16.37;;;8.70;;
9970;SDS011;5026;51.494;11.974;2022-10-31T03:50:19;18.83;;;9.23;;
9970;SDS011;5026;51.494;11.974;2022-10-31T03:52:48;18.53;;;9.03;;
9970;SDS011;5026;51.494;11.974;2022-10-31T03:55:21;14.73;;;8.80;;
9970;SDS011;5026;51.494;11.974;2022-10-31T03:57:55;18.00;;;8.77;;
9970;SDS011;5026;51.494;11.974;2022-10-31T04:00:26;15.50;;;8.73;;
9970;SDS011;5026;51.494;11.974;2022-10-31T04:02:55;15.37;;;9.07;;
9970;SDS011;5026;51.494;11.974;2022-10-31T04:05:26;16.33;;;8.77;;
9970;SDS011;5026;51.494;11.974;2022-10-31T04:07:54;13.93;;;8.37;;
9970;SDS011;5026;51.494;11.974;2022-10-31T04:10:23;14.57;;;8.73;;
9970;SDS011;5026;51.494;11.974;2022-10-31T04:12:54;16.83;;;8.53;;
9970;SDS011;5026;51.494;11.974;2022-10-31T04:15:25;15.30;;;8.57;;
9970;SDS011;5026;51.494;11.974;2022-10-31T04:17:55;16.37;;;9.30;;
9970;SDS011;5026;51.494;11.974;2022-10-31T04:20:30;14.93;;;9.33;;
9970;SDS011;5026;51.494;11.974;2022-10-31T04:22:57;13.47;;;8.97;;
9970;SDS011;5026;51.494;11.974;2022-10-31T04:25:24;18.77;;;9.43;;
9970;SDS011;5026;51.494;11.974;2022-10-31T04:27:51;18.27;;;9.33;;
9970;SDS011;5026;51.494;11.974;2022-10-31T04:30:17;17.77;;;9.77;;
9970;SDS011;5026;51.494;11.974;2022-10-31T04:32:44;18.80;;;9.83;;
9970;SDS011;5026;51.494;11.974;2022-10-31T04:35:13;14.73;;;9.87;;
9970;SDS011;5026;51.494;11.974;2022-10-31T04:37:40;17.37;;;9.40;;
9970;SDS011;5026;51.494;11.974;2022-10-31T04:40:08;16.37;;;8.80;;
9970;SDS011;5026;51.494;11.974;2022-10-31T04:42:35;16.10;;;9.37;;
9970;SDS011;5026;51.494;11.974;2022-10-31T04:45:02;14.90;;;8.20;;
9970;SDS011;5026;51.494;11.974;2022-10-31T04:47:30;19.03;;;9.47;;
9970;SDS011;5026;51.494;11.974;2022-10-31T04:49:57;19.20;;;9.20;;
9970;SDS011;5026;51.494;11.974;2022-10-31T04:52:26;16.83;;;9.17;;
9970;SDS011;5026;51.494;11.974;2022-10-31T04:54:53;13.80;;;9.20;;
9970;SDS011;5026;51.494;11.974;2022-10-31T04:57:19;16.63;;;9.47;;
9970;SDS011;5026;51.494;11.974;2022-10-31T04:59:46;14.83;;;9.03;;
9970;SDS011;5026;51.494;11.974;2022-10-31T05:02:13;14.97;;;9.60;;
9970;SDS011;5026;51.494;11.974;2022-10-31T05:04:40;18.57;;;8.97;;
9970;SDS011;5026;51.494;11.974;2022-10-31T05:07:07;16.87;;;9.40;;
9970;SDS011;5026;51.494;11.974;2022-10-31T05:09:35;21.27;;;9.27;;
9970;SDS011;5026;51.494;11.974;2022-10-31T05:12:02;12.50;;;8.80;;
9970;SDS011;5026;51.494;11.974;2022-10-31T05:14:29;19.17;;;9.00;;
9970;SDS011;5026;51.494;11.974;2022-10-31T05:16:56;16.23;;;9.40;;
9970;SDS011;5026;51.494;11.974;2022-10-31T05:19:23;15.90;;;9.47;;
9970;SDS011;5026;51.494;11.974;2022-10-31T05:21:50;17.07;;;10.47;;
9970;SDS011;5026;51.494;11.974;2022-10-31T05:24:17;19.63;;;9.00;;
9970;SDS011;5026;51.494;11.974;2022-10-31T05:26:48;14.80;;;9.50;;
9970;SDS011;5026;51.494;11.974;2022-10-31T05:29:15;16.27;;;8.97;;
9970;SDS011;5026;51.494;11.974;2022-10-31T05:31:42;16.83;;;8.07;;
9970;SDS011;5026;51.494;11.974;2022-10-31T05:34:08;14.47;;;9.27;;
9970;SDS011;5026;51.494;11.974;2022-10-31T05:36:35;14.90;;;8.97;;
9970;SDS011;5026;51.494;11.974;2022-10-31T05:39:02;16.73;;;10.00;;
9970;SDS011;5026;51.494;11.974;2022-10-31T05:41:29;19.87;;;9.80;;
9970;SDS011;5026;51.494;11.974;2022-10-31T05:43:57;16.50;;;9.47;;
9970;SDS011;5026;51.494;11.974;2022-10-31T05:46:24;16.23;;;9.03;;
9970;SDS011;5026;51.494;11.974;2022-10-31T05:48:51;12.87;;;8.93;;
9970;SDS011;5026;51.494;11.974;2022-10-31T05:51:17;15.63;;;8.73;;
9970;SDS011;5026;51.494;11.974;2022-10-31T05:53:45;15.37;;;9.30;;
9970;SDS011;5026;51.494;11.974;2022-10-31T05:56:12;14.83;;;8.77;;
9970;SDS011;5026;51.494;11.974;2022-10-31T05:58:39;17.67;;;9.50;;
9970;SDS011;5026;51.494;11.974;2022-10-31T06:01:07;15.87;;;9.20;;
9970;SDS011;5026;51.494;11.974;2022-10-31T06:03:34;11.73;;;7.93;;
9970;SDS011;5026;51.494;11.974;2022-10-31T06:06:01;18.30;;;9.23;;
9970;SDS011;5026;51.494;11.974;2022-10-31T06:08:28;21.17;;;8.80;;
9970;SDS011;5026;51.494;11.974;2022-10-31T06:10:55;13.77;;;8.43;;
9970;SDS011;5026;51.494;11.974;2022-10-31T06:13:21;13.13;;;8.83;;
9970;SDS011;5026;51.494;11.974;2022-10-31T06:15:48;16.43;;;9.03;;
9970;SDS011;5026;51.494;11.974;2022-10-31T06:18:16;18.00;;;9.63;;
9970;SDS011;5026;51.494;11.974;2022-10-31T06:20:43;16.90;;;9.00;;
9970;SDS011;5026;51.494;11.974;2022-10-31T06:23:10;15.53;;;8.70;;
9970;SDS011;5026;51.494;11.974;2022-10-31T06:25:37;13.77;;;8.87;;
9970;SDS011;5026;51.494;11.974;2022-10-31T06:28:04;11.83;;;8.10;;
9970;SDS011;5026;51.494;11.974;2022-10-31T06:30:31;12.97;;;8.43;;
9970;SDS011;5026;51.494;11.974;2022-10-31T06:33:01;14.23;;;8.83;;
9970;SDS011;5026;51.494;11.974;2022-10-31T06:35:30;13.93;;;8.30;;
9970;SDS011;5026;51.494;11.974;2022-10-31T06:37:57;16.37;;;8.60;;
9970;SDS011;5026;51.494;11.974;2022-10-31T06:40:24;15.97;;;8.77;;
9970;SDS011;5026;51.494;11.974;2022-10-31T06:42:57;17.40;;;8.40;;
9970;SDS011;5026;51.494;11.974;2022-10-31T06:45:24;14.67;;;8.33;;
9970;SDS011;5026;51.494;11.974;2022-10-31T06:47:51;14.02;;;8.73;;
9970;SDS011;5026;51.494;11.974;2022-10-31T06:50:18;13.67;;;8.63;;
9970;SDS011;5026;51.494;11.974;2022-10-31T06:52:50;16.43;;;8.67;;
9970;SDS011;5026;51.494;11.974;2022-10-31T06:55:17;12.80;;;7.50;;
9970;SDS011;5026;51.494;11.974;2022-10-31T06:57:49;18.30;;;8.97;;
9970;SDS011;5026;51.494;11.974;2022-10-31T07:00:16;13.77;;;7.95;;
9970;SDS011;5026;51.494;11.974;2022-10-31T07:02:43;14.10;;;8.17;;
9970;SDS011;5026;51.494;11.974;2022-10-31T07:05:10;14.23;;;8.07;;
9970;SDS011;5026;51.494;11.974;2022-10-31T07:07:36;15.17;;;7.50;;
9970;SDS011;5026;51.494;11.974;2022-10-31T07:10:05;17.05;;;9.25;;
9970;SDS011;5026;51.494;11.974;2022-10-31T07:12:32;14.93;;;8.18;;
9970;SDS011;5026;51.494;11.974;2022-10-31T07:14:59;16.20;;;7.57;;
9970;SDS011;5026;51.494;11.974;2022-10-31T07:17:25;11.30;;;7.35;;
9970;SDS011;5026;51.494;11.974;2022-10-31T07:19:52;14.05;;;7.22;;
9970;SDS011;5026;51.494;11.974;2022-10-31T07:22:19;14.30;;;8.07;;
9970;SDS011;5026;51.494;11.974;2022-10-31T07:24:46;15.20;;;7.25;;
9970;SDS011;5026;51.494;11.974;2022-10-31T07:27:14;19.52;;;7.57;;
9970;SDS011;5026;51.494;11.974;2022-10-31T07:29:41;12.25;;;6.90;;
9970;SDS011;5026;51.494;11.974;2022-10-31T07:32:08;14.23;;;7.88;;
9970;SDS011;5026;51.494;11.974;2022-10-31T07:34:34;11.10;;;7.13;;
9970;SDS011;5026;51.494;11.974;2022-10-31T07:37:01;12.75;;;7.30;;
9970;SDS011;5026;51.494;11.974;2022-10-31T07:39:28;14.00;;;7.18;;
9970;SDS011;5026;51.494;11.974;2022-10-31T07:41:57;12.23;;;7.28;;
9970;SDS011;5026;51.494;11.974;2022-10-31T07:44:26;11.27;;;7.00;;
9970;SDS011;5026;51.494;11.974;2022-10-31T07:46:52;13.48;;;6.78;;
9970;SDS011;5026;51.494;11.974;2022-10-31T07:49:19;12.73;;;7.25;;
9970;SDS011;5026;51.494;11.974;2022-10-31T07:51:46;10.05;;;6.72;;
9970;SDS011;5026;51.494;11.974;2022-10-31T07:54:13;13.63;;;6.90;;
9970;SDS011;5026;51.494;11.974;2022-10-31T07:56:40;13.93;;;7.03;;
9970;SDS011;5026;51.494;11.974;2022-10-31T07:59:06;9.07;;;6.63;;
9970;SDS011;5026;51.494;11.974;2022-10-31T08:01:35;12.00;;;7.32;;
9970;SDS011;5026;51.494;11.974;2022-10-31T08:04:01;15.13;;;7.65;;
9970;SDS011;5026;51.494;11.974;2022-10-31T08:06:28;14.30;;;6.88;;
9970;SDS011;5026;51.494;11.974;2022-10-31T08:08:55;12.48;;;7.18;;
9970;SDS011;5026;51.494;11.974;2022-10-31T08:11:22;12.77;;;7.25;;
9970;SDS011;5026;51.494;11.974;2022-10-31T08:13:49;10.98;;;6.95;;
9970;SDS011;5026;51.494;11.974;2022-10-31T08:16:16;14.98;;;6.65;;
9970;SDS011;5026;51.494;11.974;2022-10-31T08:18:44;13.63;;;7.68;;
9970;SDS011;5026;51.494;11.974;2022-10-31T08:21:11;14.63;;;7.43;;
9970;SDS011;5026;51.494;11.974;2022-10-31T08:23:37;11.98;;;7.40;;
9970;SDS011;5026;51.494;11.974;2022-10-31T08:26:04;12.05;;;7.20;;
9970;SDS011;5026;51.494;11.974;2022-10-31T08:28:32;14.25;;;7.80;;
9970;SDS011;5026;51.494;11.974;2022-10-31T08:30:58;14.77;;;8.90;;
9970;SDS011;5026;51.494;11.974;2022-10-31T08:33:25;14.77;;;8.85;;
9970;SDS011;5026;51.494;11.974;2022-10-31T08:35:53;16.77;;;8.93;;
9970;SDS011;5026;51.494;11.974;2022-10-31T08:38:20;16.33;;;8.25;;
9970;SDS011;5026;51.494;11.974;2022-10-31T08:40:48;12.70;;;8.48;;
9970;SDS011;5026;51.494;11.974;2022-10-31T08:43:16;16.52;;;8.18;;
9970;SDS011;5026;51.494;11.974;2022-10-31T08:45:44;15.18;;;8.57;;
9970;SDS011;5026;51.494;11.974;2022-10-31T08:48:14;12.38;;;7.90;;
9970;SDS011;5026;51.494;11.974;2022-10-31T08:50:42;14.05;;;8.88;;
9970;SDS011;5026;51.494;11.974;2022-10-31T08:53:12;15.18;;;8.40;;
9970;SDS011;5026;51.494;11.974;2022-10-31T08:55:42;20.27;;;10.38;;
9970;SDS011;5026;51.494;11.974;2022-10-31T08:58:11;15.82;;;9.63;;
9970;SDS011;5026;51.494;11.974;2022-10-31T09:00:41;16.25;;;9.48;;
9970;SDS011;5026;51.494;11.974;2022-10-31T09:03:09;15.43;;;9.65;;
9970;SDS011;5026;51.494;11.974;2022-10-31T09:05:37;16.10;;;9.32;;
9970;SDS011;5026;51.494;11.974;2022-10-31T09:08:05;19.98;;;9.20;;
9970;SDS011;5026;51.494;11.974;2022-10-31T09:10:34;15.45;;;9.40;;
9970;SDS011;5026;51.494;11.974;2022-10-31T09:13:03;13.90;;;9.70;;
9970;SDS011;5026;51.494;11.974;2022-10-31T09:15:33;20.65;;;10.00;;
9970;SDS011;5026;51.494;11.974;2022-10-31T09:18:00;18.50;;;10.75;;
9970;SDS011;5026;51.494;11.974;2022-10-31T09:20:27;17.73;;;10.90;;
9970;SDS011;5026;51.494;11.974;2022-10-31T09:22:55;21.90;;;11.75;;
9970;SDS011;5026;51.494;11.974;2022-10-31T09:25:23;24.50;;;12.40;;
9970;SDS011;5026;51.494;11.974;2022-10-31T09:27:54;34.13;;;16.98;;
9970;SDS011;5026;51.494;11.974;2022-10-31T09:30:22;29.73;;;15.93;;
9970;SDS011;5026;51.494;11.974;2022-10-31T09:32:54;37.75;;;18.98;;
9970;SDS011;5026;51.494;11.974;2022-10-31T09:35:21;36.92;;;18.65;;
9970;SDS011;5026;51.494;11.974;2022-10-31T09:37:53;33.92;;;19.27;;
9970;SDS011;5026;51.494;11.974;2022-10-31T09:40:20;35.67;;;18.63;;
9970;SDS011;5026;51.494;11.974;2022-10-31T09:42:51;37.45;;;19.92;;
9970;SDS011;5026;51.494;11.974;2022-10-31T09:45:26;42.38;;;20.48;;
9970;SDS011;5026;51.494;11.974;2022-10-31T09:48:03;40.33;;;19.65;;
9970;SDS011;5026;51.494;11.974;2022-10-31T09:50:53;39.08;;;19.70;;
9970;SDS011;5026;51.494;11.974;2022-10-31T09:53:25;39.42;;;19.05;;
9970;SDS011;5026;51.494;11.974;2022-10-31T09:55:58;38.58;;;19.33;;
9970;SDS011;5026;51.494;11.974;2022-10-31T09:58:28;39.50;;;19.77;;
9970;SDS011;5026;51.494;11.974;2022-10-31T10:00:56;33.10;;;19.13;;
9970;SDS011;5026;51.494;11.974;2022-10-31T10:03:30;39.10;;;19.23;;
9970;SDS011;5026;51.494;11.974;2022-10-31T10:06:04;36.15;;;18.55;;
9970;SDS011;5026;51.494;11.974;2022-10-31T10:08:37;36.33;;;18.67;;
9970;SDS011;5026;51.494;11.974;2022-10-31T10:11:08;35.25;;;18.45;;
9970;SDS011;5026;51.494;11.974;2022-10-31T10:14:00;36.75;;;18.65;;
9970;SDS011;5026;51.494;11.974;2022-10-31T10:16:43;36.28;;;19.55;;
9970;SDS011;5026;51.494;11.974;2022-10-31T10:19:21;39.53;;;19.38;;
9970;SDS011;5026;51.494;11.974;2022-10-31T10:21:58;42.30;;;19.90;;
9970;SDS011;5026;51.494;11.974;2022-10-31T10:24:38;43.78;;;18.25;;
9970;SDS011;5026;51.494;11.974;2022-10-31T10:27:19;37.95;;;17.67;;
9970;SDS011;5026;51.494;11.974;2022-10-31T10:29:52;39.00;;;18.98;;
9970;SDS011;5026;51.494;11.974;2022-10-31T10:32:24;37.25;;;19.25;;
9970;SDS011;5026;51.494;11.974;2022-10-31T10:34:56;33.75;;;17.48;;
9970;SDS011;5026;51.494;11.974;2022-10-31T10:37:27;42.45;;;19.90;;
9970;SDS011;5026;51.494;11.974;2022-10-31T10:40:01;49.40;;;22.52;;
9970;SDS011;5026;51.494;11.974;2022-10-31T10:42:34;42.13;;;20.83;;
9970;SDS011;5026;51.494;11.974;2022-10-31T10:45:20;45.45;;;21.23;;
9970;SDS011;5026;51.494;11.974;2022-10-31T10:48:11;40.00;;;20.02;;
9970;SDS011;5026;51.494;11.974;2022-10-31T10:50:43;43.78;;;21.77;;
9970;SDS011;5026;51.494;11.974;2022-10-31T10:53:18;47.95;;;21.90;;
9970;SDS011;5026;51.494;11.974;2022-10-31T10:56:02;44.40;;;21.23;;
9970;SDS011;5026;51.494;11.974;2022-10-31T10:59:08;52.53;;;22.40;;
9970;SDS011;5026;51.494;11.974;2022-10-31T11:01:33;46.78;;;22.02;;
9970;SDS011;5026;51.494;11.974;2022-10-31T11:04:00;51.28;;;22.48;;
9970;SDS011;5026;51.494;11.974;2022-10-31T11:06:29;47.20;;;21.92;;
9970;SDS011;5026;51.494;11.974;2022-10-31T11:08:56;46.88;;;22.27;;
9970;SDS011;5026;51.494;11.974;2022-10-31T11:11:24;50.70;;;23.10;;
9970;SDS011;5026;51.494;11.974;2022-10-31T11:13:56;49.78;;;22.15;;
9970;SDS011;5026;51.494;11.974;2022-10-31T11:16:31;49.67;;;23.50;;
9970;SDS011;5026;51.494;11.974;2022-10-31T11:19:08;51.03;;;24.33;;
9970;SDS011;5026;51.494;11.974;2022-10-31T11:21:40;51.92;;;23.42;;
9970;SDS011;5026;51.494;11.974;2022-10-31T11:24:12;44.15;;;22.83;;
9970;SDS011;5026;51.494;11.974;2022-10-31T11:26:42;48.80;;;23.45;;
9970;SDS011;5026;51.494;11.974;2022-10-31T11:29:12;49.92;;;22.95;;
9970;SDS011;5026;51.494;11.974;2022-10-31T11:31:42;47.75;;;24.20;;
9970;SDS011;5026;51.494;11.974;2022-10-31T11:34:14;49.97;;;22.88;;
9970;SDS011;5026;51.494;11.974;2022-10-31T11:36:47;45.60;;;21.90;;
9970;SDS011;5026;51.494;11.974;2022-10-31T11:39:16;48.03;;;22.83;;
9970;SDS011;5026;51.494;11.974;2022-10-31T11:41:46;45.28;;;24.35;;
9970;SDS011;5026;51.494;11.974;2022-10-31T11:44:14;52.40;;;23.65;;
9970;SDS011;5026;51.494;11.974;2022-10-31T11:46:46;45.88;;;22.88;;
9970;SDS011;5026;51.494;11.974;2022-10-31T11:49:15;43.85;;;21.55;;
9970;SDS011;5026;51.494;11.974;2022-10-31T11:51:46;53.50;;;25.38;;
9970;SDS011;5026;51.494;11.974;2022-10-31T11:54:19;54.45;;;24.30;;
9970;SDS011;5026;51.494;11.974;2022-10-31T11:56:49;49.35;;;24.13;;
9970;SDS011;5026;51.494;11.974;2022-10-31T11:59:17;54.72;;;23.88;;
9970;SDS011;5026;51.494;11.974;2022-10-31T12:01:50;50.17;;;24.55;;
9970;SDS011;5026;51.494;11.974;2022-10-31T12:04:18;46.35;;;23.20;;
9970;SDS011;5026;51.494;11.974;2022-10-31T12:07:09;50.05;;;24.35;;
9970;SDS011;5026;51.494;11.974;2022-10-31T12:09:36;52.83;;;25.05;;
9970;SDS011;5026;51.494;11.974;2022-10-31T12:12:17;49.67;;;23.25;;
9970;SDS011;5026;51.494;11.974;2022-10-31T12:15:09;53.40;;;23.25;;
9970;SDS011;5026;51.494;11.974;2022-10-31T12:17:55;49.33;;;22.90;;
9970;SDS011;5026;51.494;11.974;2022-10-31T12:20:52;47.45;;;23.75;;
9970;SDS011;5026;51.494;11.974;2022-10-31T12:23:29;53.45;;;24.33;;
9970;SDS011;5026;51.494;11.974;2022-10-31T12:26:04;50.83;;;24.40;;
9970;SDS011;5026;51.494;11.974;2022-10-31T12:28:44;48.22;;;24.23;;
9970;SDS011;5026;51.494;11.974;2022-10-31T12:31:25;54.05;;;24.35;;
9970;SDS011;5026;51.494;11.974;2022-10-31T12:34:27;45.33;;;23.50;;
9970;SDS011;5026;51.494;11.974;2022-10-31T12:37:11;46.75;;;24.25;;
9970;SDS011;5026;51.494;11.974;2022-10-31T12:39:44;53.55;;;23.58;;
9970;SDS011;5026;51.494;11.974;2022-10-31T12:42:23;53.03;;;23.60;;
9970;SDS011;5026;51.494;11.974;2022-10-31T12:45:17;43.28;;;22.02;;
9970;SDS011;5026;51.494;11.974;2022-10-31T12:48:01;56.10;;;24.67;;
9970;SDS011;5026;51.494;11.974;2022-10-31T12:50:45;46.92;;;23.00;;
9970;SDS011;5026;51.494;11.974;2022-10-31T12:53:21;51.08;;;24.83;;
9970;SDS011;5026;51.494;11.974;2022-10-31T12:56:00;56.63;;;24.95;;
9970;SDS011;5026;51.494;11.974;2022-10-31T12:58:40;51.13;;;24.90;;
9970;SDS011;5026;51.494;11.974;2022-10-31T13:01:12;49.40;;;24.10;;
9970;SDS011;5026;51.494;11.974;2022-10-31T13:03:44;51.00;;;24.70;;
9970;SDS011;5026;51.494;11.974;2022-10-31T13:06:19;52.28;;;25.40;;
9970;SDS011;5026;51.494;11.974;2022-10-31T13:08:49;51.00;;;25.20;;
9970;SDS011;5026;51.494;11.974;2022-10-31T13:11:20;57.97;;;25.70;;
9970;SDS011;5026;51.494;11.974;2022-10-31T13:13:53;49.55;;;24.70;;
9970;SDS011;5026;51.494;11.974;2022-10-31T13:16:28;55.35;;;26.40;;
9970;SDS011;5026;51.494;11.974;2022-10-31T13:18:58;61.50;;;24.88;;
9970;SDS011;5026;51.494;11.974;2022-10-31T13:21:33;47.75;;;22.90;;
9970;SDS011;5026;51.494;11.974;2022-10-31T13:24:04;57.97;;;24.95;;
9970;SDS011;5026;51.494;11.974;2022-10-31T13:26:38;50.50;;;25.70;;
9970;SDS011;5026;51.494;11.974;2022-10-31T13:29:13;55.60;;;25.75;;
9970;SDS011;5026;51.494;11.974;2022-10-31T13:31:44;54.10;;;25.45;;
9970;SDS011;5026;51.494;11.974;2022-10-31T13:34:16;56.97;;;25.10;;
9970;SDS011;5026;51.494;11.974;2022-10-31T13:36:52;52.00;;;25.33;;
9970;SDS011;5026;51.494;11.974;2022-10-31T13:39:26;59.30;;;25.35;;
9970;SDS011;5026;51.494;11.974;2022-10-31T13:42:08;50.97;;;24.20;;
9970;SDS011;5026;51.494;11.974;2022-10-31T13:44:40;55.70;;;24.45;;
9970;SDS011;5026;51.494;11.974;2022-10-31T13:47:20;54.15;;;25.33;;
9970;SDS011;5026;51.494;11.974;2022-10-31T13:49:48;56.10;;;25.40;;
9970;SDS011;5026;51.494;11.974;2022-10-31T13:52:22;51.42;;;25.33;;
9970;SDS011;5026;51.494;11.974;2022-10-31T13:54:51;53.83;;;25.65;;
9970;SDS011;5026;51.494;11.974;2022-10-31T13:57:23;57.67;;;25.77;;
9970;SDS011;5026;51.494;11.974;2022-10-31T14:00:02;53.83;;;24.52;;
9970;SDS011;5026;51.494;11.974;2022-10-31T14:02:31;51.33;;;24.98;;
9970;SDS011;5026;51.494;11.974;2022-10-31T14:05:01;58.05;;;25.85;;
9970;SDS011;5026;51.494;11.974;2022-10-31T14:07:33;51.40;;;26.38;;
9970;SDS011;5026;51.494;11.974;2022-10-31T14:10:01;57.58;;;26.05;;
9970;SDS011;5026;51.494;11.974;2022-10-31T14:12:31;55.75;;;26.70;;
9970;SDS011;5026;51.494;11.974;2022-10-31T14:15:04;62.22;;;27.52;;
9970;SDS011;5026;51.494;11.974;2022-10-31T14:17:45;64.97;;;27.45;;
9970;SDS011;5026;51.494;11.974;2022-10-31T14:20:24;52.60;;;27.13;;
9970;SDS011;5026;51.494;11.974;2022-10-31T14:23:09;59.80;;;27.27;;
9970;SDS011;5026;51.494;11.974;2022-10-31T14:25:37;63.42;;;28.77;;
9970;SDS011;5026;51.494;11.974;2022-10-31T14:28:17;68.80;;;29.20;;
9970;SDS011;5026;51.494;11.974;2022-10-31T14:30:51;66.53;;;30.67;;
9970;SDS011;5026;51.494;11.974;2022-10-31T14:33:19;59.30;;;29.30;;
9970;SDS011;5026;51.494;11.974;2022-10-31T14:35:51;63.17;;;28.15;;
9970;SDS011;5026;51.494;11.974;2022-10-31T14:38:27;63.40;;;28.30;;
9970;SDS011;5026;51.494;11.974;2022-10-31T14:41:06;61.33;;;27.95;;
9970;SDS011;5026;51.494;11.974;2022-10-31T14:43:51;62.95;;;27.27;;
9970;SDS011;5026;51.494;11.974;2022-10-31T14:46:43;57.47;;;28.60;;
9970;SDS011;5026;51.494;11.974;2022-10-31T14:49:24;66.25;;;31.90;;
9970;SDS011;5026;51.494;11.974;2022-10-31T14:52:02;66.28;;;34.65;;
9970;SDS011;5026;51.494;11.974;2022-10-31T14:54:35;69.30;;;30.45;;
9970;SDS011;5026;51.494;11.974;2022-10-31T14:57:05;68.10;;;29.73;;
9970;SDS011;5026;51.494;11.974;2022-10-31T14:59:35;69.75;;;29.55;;
9970;SDS011;5026;51.494;11.974;2022-10-31T15:02:08;71.22;;;30.38;;
9970;SDS011;5026;51.494;11.974;2022-10-31T15:04:40;67.30;;;30.65;;
9970;SDS011;5026;51.494;11.974;2022-10-31T15:07:12;66.30;;;30.55;;